Kandiyohi, MN (56251)

5:56 PM CDT on July 25, 2016 (GMT -0500)
Willmar | | Change Station

Elev 1188 ft 45.15 °N, 95.00 °W | Updated 13 minutes ago

Clear
Clear
85.5 °F
Feels Like 89 °F
N
10.0
Wind Variable Wind from WNW
Gusts 10.0 mph

Today
High -- | Low -- °F
--% Chance of Precip.
Yesterday
High -- | Low -- °F
Precip. -- in
Pressure 30.05 in
Visibility 10.0 miles
Clouds Clear
Heat Index 89 °F
Dew Point 67 °F
Humidity 55%
Rainfall 0.00 in
Snow Depth Not available.
5:57 AM 8:54 PM
Waning Gibbous, 61% visible
METAR KBDH 252235Z AUTO 22004KT 10SM CLR 29/20 A3005 RMK AO2
Pressure 30.05 in
Visibility 10.0 miles
Clouds Clear
Heat Index 89 °F
Dew Point 67 °F
Humidity 55%
Rainfall 0.00 in
Snow Depth Not available.
5:57 AM 8:54 PM
Waning Gibbous, 61% visible
METAR KBDH 252235Z AUTO 22004KT 10SM CLR 29/20 A3005 RMK AO2

10-Day Weather Forecast

Almanac

Astronomy

Jul. 25, 2016 Rise Set
Actual Time
Civil Twilight
Nautical Twilight
Astronomical Twilight
Moon
Length of Visible Light
Length of Day
Tomorrow will be .
, % of the Moon is Illuminated

Today's Extremes

State Highs State Lows

Community

WunderPhotos

Upload Photos

1,927,436 photos uploaded!

WunderBlog® & News

Nearby

Air Quality

  Air Quality AQ Index Pollutant
Not available.

Snow Depth

Station Depth Elevation

Earthquake Activity

City Distance Mag. Time & Date
Minimum magnitude displayed is 2.5.

Coastal Water Temperatures

Place Temperature

Stations

Nearby Weather Stations

Station Location Temp. Windchill Dew Point Humidity Wind Precip. Elev Updated Type
                   

Watches & Warnings

There are currently no watches in effect.